sensor_id;sensor_type;location;lat;lon;timestamp;pressure;altitude;pressure_sealevel;temperature;humidity
77939;BME280;67136;47.546;21.630;2023-04-24T00:03:20;99644.44;;;8.65;69.56
77939;BME280;67136;47.546;21.630;2023-04-24T00:06:35;99651.69;;;8.61;71.22
77939;BME280;67136;47.546;21.630;2023-04-24T00:10:00;99646.84;;;8.57;70.28
77939;BME280;67136;47.546;21.630;2023-04-24T00:13:26;99644.50;;;8.54;70.56
77939;BME280;67136;47.546;21.630;2023-04-24T00:16:58;99640.78;;;8.47;70.87
77939;BME280;67136;47.546;21.630;2023-04-24T00:20:47;99636.84;;;8.32;70.72
77939;BME280;67136;47.546;21.630;2023-04-24T00:24:15;99631.41;;;8.35;72.53
77939;BME280;67136;47.546;21.630;2023-04-24T00:27:52;99631.50;;;8.33;71.59
77939;BME280;67136;47.546;21.630;2023-04-24T00:31:03;99627.09;;;8.24;71.88
77939;BME280;67136;47.546;21.630;2023-04-24T00:34:30;99631.00;;;8.19;72.62
77939;BME280;67136;47.546;21.630;2023-04-24T00:37:41;99628.66;;;8.16;72.61
77939;BME280;67136;47.546;21.630;2023-04-24T00:40:58;99618.44;;;8.24;73.09
77939;BME280;67136;47.546;21.630;2023-04-24T00:44:09;99621.75;;;8.26;74.00
77939;BME280;67136;47.546;21.630;2023-04-24T00:47:16;99622.25;;;8.20;74.30
77939;BME280;67136;47.546;21.630;2023-04-24T00:54:19;99614.44;;;8.20;73.45
77939;BME280;67136;47.546;21.630;2023-04-24T00:57:41;99609.53;;;8.06;73.56
77939;BME280;67136;47.546;21.630;2023-04-24T01:00:55;99617.72;;;8.01;75.17
77939;BME280;67136;47.546;21.630;2023-04-24T01:04:33;99608.91;;;7.93;74.12
77939;BME280;67136;47.546;21.630;2023-04-24T01:07:55;99614.34;;;7.90;74.37
77939;BME280;67136;47.546;21.630;2023-04-24T01:11:09;99612.13;;;7.85;75.56
77939;BME280;67136;47.546;21.630;2023-04-24T01:18:19;99599.97;;;7.75;75.28
77939;BME280;67136;47.546;21.630;2023-04-24T01:21:30;99604.56;;;7.82;75.21
77939;BME280;67136;47.546;21.630;2023-04-24T01:24:58;99601.66;;;7.76;75.33
77939;BME280;67136;47.546;21.630;2023-04-24T01:28:15;99606.28;;;7.72;76.33
77939;BME280;67136;47.546;21.630;2023-04-24T01:31:49;99596.69;;;7.73;76.46
77939;BME280;67136;47.546;21.630;2023-04-24T01:35:31;99598.59;;;7.71;76.29
77939;BME280;67136;47.546;21.630;2023-04-24T01:39:17;99595.81;;;7.63;76.33
77939;BME280;67136;47.546;21.630;2023-04-24T01:42:46;99596.28;;;7.56;76.75
77939;BME280;67136;47.546;21.630;2023-04-24T01:46:04;99602.69;;;7.52;76.47
77939;BME280;67136;47.546;21.630;2023-04-24T01:49:39;99596.28;;;7.56;77.79
77939;BME280;67136;47.546;21.630;2023-04-24T01:53:02;99591.06;;;7.56;77.40
77939;BME280;67136;47.546;21.630;2023-04-24T01:56:33;99594.31;;;7.49;77.37
77939;BME280;67136;47.546;21.630;2023-04-24T01:59:44;99589.59;;;7.43;77.70
77939;BME280;67136;47.546;21.630;2023-04-24T02:03:03;99582.44;;;7.35;77.71
77939;BME280;67136;47.546;21.630;2023-04-24T02:06:47;99585.94;;;7.34;78.38
77939;BME280;67136;47.546;21.630;2023-04-24T02:10:22;99588.81;;;7.31;78.79
77939;BME280;67136;47.546;21.630;2023-04-24T02:13:59;99580.81;;;7.23;78.17
77939;BME280;67136;47.546;21.630;2023-04-24T02:17:43;99578.47;;;7.20;78.55
77939;BME280;67136;47.546;21.630;2023-04-24T02:20:58;99576.31;;;7.14;78.57
77939;BME280;67136;47.546;21.630;2023-04-24T02:24:19;99576.13;;;7.06;78.42
77939;BME280;67136;47.546;21.630;2023-04-24T02:27:34;99577.22;;;7.04;78.48
77939;BME280;67136;47.546;21.630;2023-04-24T02:30:47;99574.16;;;6.99;78.61
77939;BME280;67136;47.546;21.630;2023-04-24T02:34:09;99567.41;;;6.96;79.08
77939;BME280;67136;47.546;21.630;2023-04-24T02:37:32;99568.94;;;6.99;78.84
77939;BME280;67136;47.546;21.630;2023-04-24T02:41:09;99559.72;;;6.95;79.40
77939;BME280;67136;47.546;21.630;2023-04-24T02:48:17;99560.09;;;6.90;78.91
77939;BME280;67136;47.546;21.630;2023-04-24T02:52:02;99555.12;;;6.87;79.17
77939;BME280;67136;47.546;21.630;2023-04-24T02:55:54;99548.41;;;6.85;79.54
77939;BME280;67136;47.546;21.630;2023-04-24T02:59:15;99545.22;;;6.81;79.38
77939;BME280;67136;47.546;21.630;2023-04-24T03:06:30;99547.47;;;6.75;79.63
77939;BME280;67136;47.546;21.630;2023-04-24T03:09:54;99551.59;;;6.77;80.33
77939;BME280;67136;47.546;21.630;2023-04-24T03:13:24;99549.97;;;6.76;79.85
77939;BME280;67136;47.546;21.630;2023-04-24T03:20:23;99550.44;;;6.81;79.58
77939;BME280;67136;47.546;21.630;2023-04-24T03:24:13;99550.19;;;6.84;79.41
77939;BME280;67136;47.546;21.630;2023-04-24T03:27:41;99554.53;;;6.84;79.90
77939;BME280;67136;47.546;21.630;2023-04-24T03:31:03;99554.78;;;6.81;79.22
77939;BME280;67136;47.546;21.630;2023-04-24T03:34:16;99554.91;;;6.90;78.74
77939;BME280;67136;47.546;21.630;2023-04-24T03:37:49;99552.31;;;6.90;78.39
77939;BME280;67136;47.546;21.630;2023-04-24T03:41:16;99550.84;;;6.97;78.12
77939;BME280;67136;47.546;21.630;2023-04-24T03:44:46;99553.22;;;7.00;77.80
77939;BME280;67136;47.546;21.630;2023-04-24T03:48:15;99558.19;;;7.03;77.74
77939;BME280;67136;47.546;21.630;2023-04-24T03:51:31;99555.31;;;7.06;77.51
77939;BME280;67136;47.546;21.630;2023-04-24T03:55:06;99558.63;;;7.08;77.21
77939;BME280;67136;47.546;21.630;2023-04-24T03:58:45;99557.31;;;7.14;76.88
77939;BME280;67136;47.546;21.630;2023-04-24T04:05:53;99557.16;;;7.26;75.92
77939;BME280;67136;47.546;21.630;2023-04-24T04:09:10;99556.63;;;7.43;75.10
77939;BME280;67136;47.546;21.630;2023-04-24T04:12:50;99553.72;;;7.57;74.40
77939;BME280;67136;47.546;21.630;2023-04-24T04:16:11;99555.75;;;7.75;73.57
77939;BME280;67136;47.546;21.630;2023-04-24T04:23:16;99556.31;;;7.99;72.59
77939;BME280;67136;47.546;21.630;2023-04-24T04:26:44;99561.00;;;8.05;72.18
77939;BME280;67136;47.546;21.630;2023-04-24T04:33:53;99551.87;;;8.31;71.18
77939;BME280;67136;47.546;21.630;2023-04-24T04:37:11;99555.78;;;8.46;70.73
77939;BME280;67136;47.546;21.630;2023-04-24T04:40:20;99557.47;;;8.56;70.31
77939;BME280;67136;47.546;21.630;2023-04-24T04:43:45;99559.44;;;8.73;69.84
77939;BME280;67136;47.546;21.630;2023-04-24T04:47:21;99556.44;;;8.88;69.33
77939;BME280;67136;47.546;21.630;2023-04-24T04:51:06;99558.28;;;9.16;68.64
77939;BME280;67136;47.546;21.630;2023-04-24T04:55:03;99559.28;;;9.34;67.90
77939;BME280;67136;47.546;21.630;2023-04-24T04:58:41;99550.75;;;9.60;67.00
77939;BME280;67136;47.546;21.630;2023-04-24T05:01:55;99543.28;;;9.84;66.15
77939;BME280;67136;47.546;21.630;2023-04-24T05:05:27;99547.66;;;10.03;65.59
77939;BME280;67136;47.546;21.630;2023-04-24T05:09:07;99560.28;;;10.27;64.97
77939;BME280;67136;47.546;21.630;2023-04-24T05:12:28;99549.16;;;10.52;63.88
77939;BME280;67136;47.546;21.630;2023-04-24T05:19:24;99550.34;;;10.94;62.45
77939;BME280;67136;47.546;21.630;2023-04-24T05:22:51;99554.06;;;11.18;61.87
77939;BME280;67136;47.546;21.630;2023-04-24T05:29:42;99553.13;;;11.63;60.71
77939;BME280;67136;47.546;21.630;2023-04-24T05:33:28;99559.44;;;11.87;59.82
77939;BME280;67136;47.546;21.630;2023-04-24T05:37:00;99553.03;;;12.07;59.10
77939;BME280;67136;47.546;21.630;2023-04-24T05:40:16;99553.63;;;12.01;59.43
77939;BME280;67136;47.546;21.630;2023-04-24T05:43:38;99549.63;;;12.15;59.26
77939;BME280;67136;47.546;21.630;2023-04-24T05:46:56;99553.50;;;12.36;59.19
77939;BME280;67136;47.546;21.630;2023-04-24T05:50:07;99551.03;;;12.69;58.38
77939;BME280;67136;47.546;21.630;2023-04-24T05:53:38;99552.25;;;13.32;57.05
77939;BME280;67136;47.546;21.630;2023-04-24T05:57:04;99553.28;;;13.79;55.79
77939;BME280;67136;47.546;21.630;2023-04-24T06:00:16;99550.97;;;13.84;54.81
77939;BME280;67136;47.546;21.630;2023-04-24T06:03:24;99540.78;;;13.89;54.61
77939;BME280;67136;47.546;21.630;2023-04-24T06:06:28;99542.03;;;14.33;53.84
77939;BME280;67136;47.546;21.630;2023-04-24T06:09:31;99541.28;;;14.63;52.72
77939;BME280;67136;47.546;21.630;2023-04-24T06:12:34;99531.03;;;14.76;51.90
77939;BME280;67136;47.546;21.630;2023-04-24T06:15:44;99540.34;;;15.18;51.16
77939;BME280;67136;47.546;21.630;2023-04-24T06:18:50;99526.09;;;15.35;49.76
77939;BME280;67136;47.546;21.630;2023-04-24T06:21:54;99533.78;;;16.04;47.79
77939;BME280;67136;47.546;21.630;2023-04-24T06:24:59;99540.69;;;16.92;45.88
77939;BME280;67136;47.546;21.630;2023-04-24T06:28:02;99533.50;;;17.79;44.11
77939;BME280;67136;47.546;21.630;2023-04-24T06:31:07;99535.16;;;17.44;43.25
77939;BME280;67136;47.546;21.630;2023-04-24T06:34:10;99542.28;;;17.22;44.75
77939;BME280;67136;47.546;21.630;2023-04-24T06:37:12;99543.94;;;16.59;45.73
77939;BME280;67136;47.546;21.630;2023-04-24T06:40:15;99546.38;;;17.25;44.42
77939;BME280;67136;47.546;21.630;2023-04-24T06:43:25;99539.19;;;17.76;43.63
77939;BME280;67136;47.546;21.630;2023-04-24T06:46:28;99538.06;;;17.64;43.23
77939;BME280;67136;47.546;21.630;2023-04-24T06:49:31;99536.78;;;17.81;42.97
77939;BME280;67136;47.546;21.630;2023-04-24T06:52:36;99539.66;;;17.86;42.47
77939;BME280;67136;47.546;21.630;2023-04-24T06:55:42;99544.22;;;17.50;43.13
77939;BME280;67136;47.546;21.630;2023-04-24T06:58:46;99531.59;;;17.94;42.31
77939;BME280;67136;47.546;21.630;2023-04-24T07:01:50;99531.56;;;18.21;42.15
77939;BME280;67136;47.546;21.630;2023-04-24T07:04:56;99530.97;;;18.19;41.91
77939;BME280;67136;47.546;21.630;2023-04-24T07:08:03;99526.34;;;18.62;41.24
77939;BME280;67136;47.546;21.630;2023-04-24T07:11:11;99536.25;;;19.54;39.30
77939;BME280;67136;47.546;21.630;2023-04-24T07:14:20;99522.38;;;19.92;37.85
77939;BME280;67136;47.546;21.630;2023-04-24T07:17:35;99523.19;;;19.72;37.16
77939;BME280;67136;47.546;21.630;2023-04-24T07:20:41;99519.59;;;19.07;38.25
77939;BME280;67136;47.546;21.630;2023-04-24T07:23:43;99524.50;;;18.56;39.26
77939;BME280;67136;47.546;21.630;2023-04-24T07:26:49;99526.50;;;19.01;38.61
77939;BME280;67136;47.546;21.630;2023-04-24T07:29:54;99531.88;;;19.27;38.35
77939;BME280;67136;47.546;21.630;2023-04-24T07:32:57;99523.81;;;19.68;37.43
77939;BME280;67136;47.546;21.630;2023-04-24T07:36:00;99522.78;;;19.62;37.19
77939;BME280;67136;47.546;21.630;2023-04-24T07:39:02;99533.16;;;19.44;37.58
77939;BME280;67136;47.546;21.630;2023-04-24T07:42:05;99525.34;;;19.23;38.16
77939;BME280;67136;47.546;21.630;2023-04-24T07:45:10;99531.34;;;18.85;38.22
77939;BME280;67136;47.546;21.630;2023-04-24T07:48:13;99530.22;;;19.13;37.62
77939;BME280;67136;47.546;21.630;2023-04-24T07:51:18;99525.19;;;18.71;38.15
77939;BME280;67136;47.546;21.630;2023-04-24T07:54:21;99530.25;;;18.66;38.65
77939;BME280;67136;47.546;21.630;2023-04-24T07:57:26;99530.53;;;18.16;40.21
77939;BME280;67136;47.546;21.630;2023-04-24T08:00:29;99521.50;;;18.04;40.34
77939;BME280;67136;47.546;21.630;2023-04-24T08:03:32;99530.31;;;18.45;40.03
77939;BME280;67136;47.546;21.630;2023-04-24T08:06:35;99525.66;;;18.94;39.14
77939;BME280;67136;47.546;21.630;2023-04-24T08:09:37;99526.16;;;19.24;38.53
77939;BME280;67136;47.546;21.630;2023-04-24T08:12:41;99528.53;;;18.99;39.62
77939;BME280;67136;47.546;21.630;2023-04-24T08:15:44;99538.41;;;18.37;40.66
77939;BME280;67136;47.546;21.630;2023-04-24T08:18:47;99531.19;;;18.52;41.18
77939;BME280;67136;47.546;21.630;2023-04-24T08:21:50;99534.25;;;18.28;41.25
77939;BME280;67136;47.546;21.630;2023-04-24T08:24:54;99533.12;;;17.82;41.85
77939;BME280;67136;47.546;21.630;2023-04-24T08:28:06;99549.13;;;17.74;41.93
77939;BME280;67136;47.546;21.630;2023-04-24T08:31:11;99541.75;;;17.48;43.00
77939;BME280;67136;47.546;21.630;2023-04-24T08:34:21;99541.31;;;17.66;43.04
77939;BME280;67136;47.546;21.630;2023-04-24T08:37:26;99550.59;;;17.40;44.33
77939;BME280;67136;47.546;21.630;2023-04-24T08:40:30;99542.59;;;17.49;44.43
77939;BME280;67136;47.546;21.630;2023-04-24T08:43:36;99552.97;;;17.14;44.49
77939;BME280;67136;47.546;21.630;2023-04-24T08:46:40;99550.16;;;17.01;45.11
77939;BME280;67136;47.546;21.630;2023-04-24T08:49:43;99561.69;;;16.79;45.94
77939;BME280;67136;47.546;21.630;2023-04-24T08:52:50;99554.25;;;17.04;45.90
77939;BME280;67136;47.546;21.630;2023-04-24T08:55:54;99550.34;;;17.00;46.30
77939;BME280;67136;47.546;21.630;2023-04-24T08:59:00;99556.03;;;16.53;48.06
77939;BME280;67136;47.546;21.630;2023-04-24T09:02:03;99553.47;;;16.45;49.07
77939;BME280;67136;47.546;21.630;2023-04-24T09:05:07;99548.41;;;16.73;48.99
77939;BME280;67136;47.546;21.630;2023-04-24T09:08:16;99557.22;;;16.51;50.21
77939;BME280;67136;47.546;21.630;2023-04-24T09:11:21;99551.97;;;16.28;51.10
77939;BME280;67136;47.546;21.630;2023-04-24T09:14:31;99560.25;;;16.48;50.93
77939;BME280;67136;47.546;21.630;2023-04-24T09:17:34;99577.97;;;16.68;50.34
77939;BME280;67136;47.546;21.630;2023-04-24T09:21:04;99555.50;;;16.72;50.40
77939;BME280;67136;47.546;21.630;2023-04-24T09:24:18;99555.12;;;16.90;50.29
77939;BME280;67136;47.546;21.630;2023-04-24T09:27:28;99555.59;;;16.50;51.65
77939;BME280;67136;47.546;21.630;2023-04-24T09:30:33;99555.97;;;16.61;52.60
77939;BME280;67136;47.546;21.630;2023-04-24T09:33:39;99560.25;;;16.48;53.19
77939;BME280;67136;47.546;21.630;2023-04-24T09:36:42;99555.22;;;16.53;53.65
77939;BME280;67136;47.546;21.630;2023-04-24T09:40:07;99554.69;;;16.57;53.65
77939;BME280;67136;47.546;21.630;2023-04-24T09:43:10;99568.31;;;16.90;53.38
77939;BME280;67136;47.546;21.630;2023-04-24T09:46:18;99556.31;;;16.73;53.90
77939;BME280;67136;47.546;21.630;2023-04-24T09:52:29;99557.34;;;17.07;53.70
77939;BME280;67136;47.546;21.630;2023-04-24T09:55:32;99564.97;;;17.53;53.99
77939;BME280;67136;47.546;21.630;2023-04-24T09:58:36;99575.97;;;17.20;56.07
77939;BME280;67136;47.546;21.630;2023-04-24T10:01:39;99568.03;;;16.70;57.88
77939;BME280;67136;47.546;21.630;2023-04-24T10:04:55;99573.06;;;16.65;58.90
77939;BME280;67136;47.546;21.630;2023-04-24T10:08:04;99579.03;;;15.93;60.49
77939;BME280;67136;47.546;21.630;2023-04-24T10:11:08;99590.53;;;15.55;62.66
77939;BME280;67136;47.546;21.630;2023-04-24T10:14:13;99570.16;;;15.49;63.41
77939;BME280;67136;47.546;21.630;2023-04-24T10:17:16;99573.31;;;15.44;62.71
77939;BME280;67136;47.546;21.630;2023-04-24T10:20:22;99575.53;;;15.25;62.64
77939;BME280;67136;47.546;21.630;2023-04-24T10:23:25;99575.72;;;15.23;63.56
77939;BME280;67136;47.546;21.630;2023-04-24T10:26:28;99573.72;;;14.94;64.95
77939;BME280;67136;47.546;21.630;2023-04-24T10:29:31;99578.69;;;14.89;65.89
77939;BME280;67136;47.546;21.630;2023-04-24T10:32:34;99566.09;;;15.08;65.80
77939;BME280;67136;47.546;21.630;2023-04-24T10:35:41;99570.84;;;14.73;67.14
77939;BME280;67136;47.546;21.630;2023-04-24T10:38:46;99565.56;;;14.81;69.35
77939;BME280;67136;47.546;21.630;2023-04-24T10:41:55;99568.03;;;14.83;70.34
77939;BME280;67136;47.546;21.630;2023-04-24T10:45:06;99565.19;;;14.46;72.05
77939;BME280;67136;47.546;21.630;2023-04-24T10:48:26;99561.75;;;14.37;74.37
77939;BME280;67136;47.546;21.630;2023-04-24T10:51:52;99571.66;;;14.27;74.88
77939;BME280;67136;47.546;21.630;2023-04-24T10:55:01;99574.59;;;13.76;76.68
77939;BME280;67136;47.546;21.630;2023-04-24T10:58:06;99575.56;;;13.27;79.93
77939;BME280;67136;47.546;21.630;2023-04-24T11:01:23;99584.25;;;12.94;83.55
77939;BME280;67136;47.546;21.630;2023-04-24T11:04:31;99587.00;;;12.76;85.57
77939;BME280;67136;47.546;21.630;2023-04-24T11:08:12;99579.28;;;12.75;86.21
77939;BME280;67136;47.546;21.630;2023-04-24T11:11:18;99580.22;;;12.66;87.63
77939;BME280;67136;47.546;21.630;2023-04-24T11:14:28;99584.78;;;12.64;87.73
77939;BME280;67136;47.546;21.630;2023-04-24T11:17:37;99582.69;;;12.67;89.54
77939;BME280;67136;47.546;21.630;2023-04-24T11:20:45;99584.84;;;12.72;88.91
77939;BME280;67136;47.546;21.630;2023-04-24T11:23:54;99574.31;;;12.64;89.11
77939;BME280;67136;47.546;21.630;2023-04-24T11:30:06;99576.63;;;12.67;88.61
77939;BME280;67136;47.546;21.630;2023-04-24T11:33:20;99584.69;;;12.73;88.50
77939;BME280;67136;47.546;21.630;2023-04-24T11:36:27;99582.59;;;12.77;87.77
77939;BME280;67136;47.546;21.630;2023-04-24T11:39:36;99575.84;;;12.74;86.73
77939;BME280;67136;47.546;21.630;2023-04-24T11:42:43;99575.78;;;13.00;87.63
77939;BME280;67136;47.546;21.630;2023-04-24T11:45:49;99576.09;;;12.97;86.40
77939;BME280;67136;47.546;21.630;2023-04-24T11:48:54;99570.03;;;12.96;85.91
77939;BME280;67136;47.546;21.630;2023-04-24T11:51:56;99572.22;;;13.09;86.36
77939;BME280;67136;47.546;21.630;2023-04-24T11:58:36;99567.00;;;13.17;85.35
77939;BME280;67136;47.546;21.630;2023-04-24T12:01:49;99569.97;;;13.22;85.24
77939;BME280;67136;47.546;21.630;2023-04-24T12:04:55;99571.94;;;13.28;84.96
77939;BME280;67136;47.546;21.630;2023-04-24T12:07:59;99568.13;;;13.22;85.33
77939;BME280;67136;47.546;21.630;2023-04-24T12:11:07;99560.94;;;13.24;85.01
77939;BME280;67136;47.546;21.630;2023-04-24T12:14:18;99560.44;;;13.21;85.16
77939;BME280;67136;47.546;21.630;2023-04-24T12:17:26;99546.94;;;13.08;85.78
77939;BME280;67136;47.546;21.630;2023-04-24T12:20:32;99553.69;;;13.10;86.47
77939;BME280;67136;47.546;21.630;2023-04-24T12:23:35;99558.59;;;13.05;85.75
77939;BME280;67136;47.546;21.630;2023-04-24T12:26:42;99550.06;;;13.03;86.09
77939;BME280;67136;47.546;21.630;2023-04-24T12:30:15;99547.88;;;12.99;86.59
77939;BME280;67136;47.546;21.630;2023-04-24T12:33:21;99540.53;;;13.02;85.78
77939;BME280;67136;47.546;21.630;2023-04-24T12:36:25;99532.78;;;13.01;86.35
77939;BME280;67136;47.546;21.630;2023-04-24T12:39:28;99540.00;;;12.99;85.64
77939;BME280;67136;47.546;21.630;2023-04-24T12:45:51;99522.28;;;13.01;86.07
77939;BME280;67136;47.546;21.630;2023-04-24T12:48:56;99523.28;;;13.00;86.07
77939;BME280;67136;47.546;21.630;2023-04-24T12:52:00;99512.16;;;13.06;85.56
77939;BME280;67136;47.546;21.630;2023-04-24T12:55:06;99514.00;;;13.05;84.98
77939;BME280;67136;47.546;21.630;2023-04-24T12:58:21;99524.81;;;13.10;85.57
77939;BME280;67136;47.546;21.630;2023-04-24T13:01:24;99512.84;;;13.24;85.23
77939;BME280;67136;47.546;21.630;2023-04-24T13:04:29;99502.69;;;13.21;84.43
77939;BME280;67136;47.546;21.630;2023-04-24T13:07:36;99504.34;;;13.22;85.10
77939;BME280;67136;47.546;21.630;2023-04-24T13:10:42;99496.47;;;13.38;84.89
77939;BME280;67136;47.546;21.630;2023-04-24T13:13:48;99491.88;;;13.40;86.14
77939;BME280;67136;47.546;21.630;2023-04-24T13:16:51;99488.91;;;13.35;86.40
77939;BME280;67136;47.546;21.630;2023-04-24T13:20:01;99493.34;;;13.34;86.58
77939;BME280;67136;47.546;21.630;2023-04-24T13:23:08;99483.00;;;13.25;87.55
77939;BME280;67136;47.546;21.630;2023-04-24T13:26:19;99484.97;;;13.31;87.76
77939;BME280;67136;47.546;21.630;2023-04-24T13:29:27;99474.97;;;13.26;88.20
77939;BME280;67136;47.546;21.630;2023-04-24T13:32:32;99479.25;;;13.35;88.17
77939;BME280;67136;47.546;21.630;2023-04-24T13:35:36;99467.25;;;13.41;86.89
77939;BME280;67136;47.546;21.630;2023-04-24T13:38:39;99463.31;;;13.45;87.50
77939;BME280;67136;47.546;21.630;2023-04-24T13:41:43;99457.38;;;13.51;88.34
77939;BME280;67136;47.546;21.630;2023-04-24T13:44:51;99455.91;;;13.56;87.29
77939;BME280;67136;47.546;21.630;2023-04-24T13:47:58;99450.16;;;13.53;87.19
77939;BME280;67136;47.546;21.630;2023-04-24T13:51:07;99447.53;;;13.61;86.98
77939;BME280;67136;47.546;21.630;2023-04-24T13:54:12;99444.91;;;13.69;86.50
77939;BME280;67136;47.546;21.630;2023-04-24T13:57:19;99443.38;;;13.91;86.50
77939;BME280;67136;47.546;21.630;2023-04-24T14:00:25;99428.94;;;13.79;86.67
77939;BME280;67136;47.546;21.630;2023-04-24T14:03:35;99434.03;;;13.80;86.61
77939;BME280;67136;47.546;21.630;2023-04-24T14:06:43;99432.72;;;13.84;85.39
77939;BME280;67136;47.546;21.630;2023-04-24T14:09:53;99428.09;;;13.86;85.57
77939;BME280;67136;47.546;21.630;2023-04-24T14:12:58;99421.19;;;13.93;86.85
77939;BME280;67136;47.546;21.630;2023-04-24T14:16:08;99420.53;;;13.99;85.78
77939;BME280;67136;47.546;21.630;2023-04-24T14:19:14;99417.06;;;13.99;84.83
77939;BME280;67136;47.546;21.630;2023-04-24T14:22:26;99416.25;;;13.98;85.05
77939;BME280;67136;47.546;21.630;2023-04-24T14:25:34;99407.22;;;14.01;85.11
77939;BME280;67136;47.546;21.630;2023-04-24T14:28:40;99407.97;;;14.17;84.84
77939;BME280;67136;47.546;21.630;2023-04-24T14:31:46;99403.38;;;14.11;85.48
77939;BME280;67136;47.546;21.630;2023-04-24T14:34:57;99402.44;;;13.96;84.71
77939;BME280;67136;47.546;21.630;2023-04-24T14:38:01;99402.97;;;13.92;84.61
77939;BME280;67136;47.546;21.630;2023-04-24T14:41:07;99404.75;;;13.91;84.20
77939;BME280;67136;47.546;21.630;2023-04-24T14:44:17;99397.50;;;14.01;83.75
77939;BME280;67136;47.546;21.630;2023-04-24T14:47:25;99403.06;;;14.06;83.69
77939;BME280;67136;47.546;21.630;2023-04-24T14:50:27;99395.81;;;14.16;84.36
77939;BME280;67136;47.546;21.630;2023-04-24T14:53:34;99403.66;;;14.24;83.09
77939;BME280;67136;47.546;21.630;2023-04-24T14:56:39;99397.44;;;14.56;82.38
77939;BME280;67136;47.546;21.630;2023-04-24T14:59:45;99392.56;;;14.45;82.75
77939;BME280;67136;47.546;21.630;2023-04-24T15:02:53;99391.75;;;14.75;81.31
77939;BME280;67136;47.546;21.630;2023-04-24T15:05:56;99384.94;;;14.58;81.63
77939;BME280;67136;47.546;21.630;2023-04-24T15:09:01;99384.00;;;14.51;82.18
77939;BME280;67136;47.546;21.630;2023-04-24T15:12:04;99374.38;;;14.35;83.56
77939;BME280;67136;47.546;21.630;2023-04-24T15:15:13;99382.78;;;14.31;83.38
77939;BME280;67136;47.546;21.630;2023-04-24T15:18:16;99374.63;;;14.48;82.89
77939;BME280;67136;47.546;21.630;2023-04-24T15:21:22;99374.38;;;14.35;83.28
77939;BME280;67136;47.546;21.630;2023-04-24T15:24:28;99364.50;;;14.37;83.35
77939;BME280;67136;47.546;21.630;2023-04-24T15:27:41;99365.53;;;14.20;83.11
77939;BME280;67136;47.546;21.630;2023-04-24T15:30:48;99352.94;;;14.16;84.42
77939;BME280;67136;47.546;21.630;2023-04-24T15:33:50;99359.75;;;14.25;85.11
77939;BME280;67136;47.546;21.630;2023-04-24T15:36:54;99348.94;;;14.20;85.27
77939;BME280;67136;47.546;21.630;2023-04-24T15:40:16;99349.69;;;14.06;84.94
77939;BME280;67136;47.546;21.630;2023-04-24T15:43:21;99349.56;;;13.91;85.59
77939;BME280;67136;47.546;21.630;2023-04-24T15:46:25;99343.28;;;14.00;85.83
77939;BME280;67136;47.546;21.630;2023-04-24T15:49:31;99339.72;;;13.93;85.43
77939;BME280;67136;47.546;21.630;2023-04-24T15:52:40;99339.34;;;13.96;86.20
77939;BME280;67136;47.546;21.630;2023-04-24T15:55:42;99344.91;;;14.09;85.65
77939;BME280;67136;47.546;21.630;2023-04-24T15:58:48;99339.00;;;14.07;85.89
77939;BME280;67136;47.546;21.630;2023-04-24T16:01:51;99336.53;;;14.06;86.17
77939;BME280;67136;47.546;21.630;2023-04-24T16:04:55;99326.81;;;14.06;86.44
77939;BME280;67136;47.546;21.630;2023-04-24T16:08:00;99324.38;;;14.05;86.29
77939;BME280;67136;47.546;21.630;2023-04-24T16:11:06;99324.25;;;13.98;87.48
77939;BME280;67136;47.546;21.630;2023-04-24T16:14:15;99327.88;;;13.97;87.81
77939;BME280;67136;47.546;21.630;2023-04-24T16:17:23;99317.84;;;14.01;87.78
77939;BME280;67136;47.546;21.630;2023-04-24T16:20:30;99315.44;;;13.83;88.02
77939;BME280;67136;47.546;21.630;2023-04-24T16:23:36;99325.28;;;13.89;88.37
77939;BME280;67136;47.546;21.630;2023-04-24T16:26:44;99315.44;;;13.83;88.18
77939;BME280;67136;47.546;21.630;2023-04-24T16:29:50;99311.53;;;13.79;88.56
77939;BME280;67136;47.546;21.630;2023-04-24T16:32:55;99308.91;;;13.79;88.01
77939;BME280;67136;47.546;21.630;2023-04-24T16:36:00;99310.53;;;13.80;88.43
77939;BME280;67136;47.546;21.630;2023-04-24T16:39:09;99311.53;;;13.71;87.95
77939;BME280;67136;47.546;21.630;2023-04-24T16:42:14;99314.69;;;13.66;88.87
77939;BME280;67136;47.546;21.630;2023-04-24T16:45:20;99313.38;;;13.62;89.02
77939;BME280;67136;47.546;21.630;2023-04-24T16:48:28;99303.41;;;13.58;89.04
77939;BME280;67136;47.546;21.630;2023-04-24T16:51:31;99297.47;;;13.56;89.07
77939;BME280;67136;47.546;21.630;2023-04-24T16:54:41;99299.50;;;13.54;89.45
77939;BME280;67136;47.546;21.630;2023-04-24T16:58:06;99298.19;;;13.50;89.33
77939;BME280;67136;47.546;21.630;2023-04-24T17:01:29;99303.94;;;13.45;89.59
77939;BME280;67136;47.546;21.630;2023-04-24T17:04:54;99298.38;;;13.40;90.05
77939;BME280;67136;47.546;21.630;2023-04-24T17:07:59;99303.81;;;13.39;90.42
77939;BME280;67136;47.546;21.630;2023-04-24T17:11:09;99303.50;;;13.34;91.01
77939;BME280;67136;47.546;21.630;2023-04-24T17:14:11;99306.25;;;13.32;90.40
77939;BME280;67136;47.546;21.630;2023-04-24T17:17:16;99298.53;;;13.31;91.10
77939;BME280;67136;47.546;21.630;2023-04-24T17:20:29;99300.53;;;13.29;91.43
77939;BME280;67136;47.546;21.630;2023-04-24T17:23:38;99290.69;;;13.23;91.72
77939;BME280;67136;47.546;21.630;2023-04-24T17:26:45;99303.16;;;13.21;91.64
77939;BME280;67136;47.546;21.630;2023-04-24T17:30:06;99298.09;;;13.19;92.41
77939;BME280;67136;47.546;21.630;2023-04-24T17:33:13;99302.19;;;13.14;92.51
77939;BME280;67136;47.546;21.630;2023-04-24T17:36:22;99299.56;;;13.14;93.49
77939;BME280;67136;47.546;21.630;2023-04-24T17:39:36;99300.91;;;13.10;93.88
77939;BME280;67136;47.546;21.630;2023-04-24T17:42:58;99299.25;;;13.09;93.66